Time;durP1;ratioP1;P1;durP2;ratioP2;P2;SDS_P1;SDS_P2;PMS_P1;PMS_P2;Temp;Humidity;BMP_temperature;BMP_pressure;BME280_temperature;BME280_humidity;BME280_pressure;Samples;Min_cycle;Max_cycle;Signal;HPM_P1;HPM_P2
2022/05/27 00:01:53;;;;;;;5.72;2.47;;;;;;;15.31;73.54;100275.94;12216551;19;20010;-81
2022/05/27 00:05:55;;;;;;;4.45;2.30;;;;;;;15.35;73.58;100265.94;12215073;19;20697;-82
2022/05/27 00:10:06;;;;;;;7.32;2.42;;;;;;;15.39;73.54;100247.66;12185130;19;20125;-82
2022/05/27 00:14:08;;;;;;;8.45;2.50;;;;;;;15.39;72.86;100256.81;12209974;19;20026;-82
2022/05/27 00:18:10;;;;;;;8.70;2.88;;;;;;;15.38;72.96;100255.16;12212865;19;20014;-83
2022/05/27 00:22:12;;;;;;;7.03;2.60;;;;;;;15.34;74.02;100253.19;12169037;19;20013;-82
2022/05/27 00:26:13;;;;;;;8.50;2.43;;;;;;;15.33;72.98;100245.97;12205686;19;20010;-82
2022/05/27 00:30:15;;;;;;;6.50;3.20;;;;;;;15.29;73.52;100251.25;12200896;19;20070;-82
2022/05/27 00:34:17;;;;;;;7.00;2.35;;;;;;;15.27;73.60;100253.44;12194924;19;20011;-82
2022/05/27 00:38:20;;;;;;;6.78;2.00;;;;;;;15.23;73.92;100252.31;12206384;19;20026;-81
2022/05/27 00:42:22;;;;;;;7.57;2.72;;;;;;;15.20;74.80;100253.69;12214322;19;20079;-81
2022/05/27 00:46:28;;;;;;;4.00;2.13;;;;;;;15.21;74.96;100247.03;12180462;19;20010;-82
2022/05/27 00:50:32;;;;;;;7.63;2.15;;;;;;;15.20;74.76;100242.59;12204345;19;20077;-82
2022/05/27 00:54:34;;;;;;;7.78;2.20;;;;;;;15.18;75.24;100241.19;12192195;19;20020;-83
2022/05/27 00:58:43;;;;;;;5.57;2.53;;;;;;;15.15;75.33;100237.00;12212063;19;20010;-82
2022/05/27 01:02:45;;;;;;;4.65;2.10;;;;;;;15.13;75.57;100232.81;12200192;19;20088;-82
2022/05/27 01:06:47;;;;;;;4.47;1.75;;;;;;;15.11;75.43;100233.09;12186996;19;20007;-82
2022/05/27 01:11:17;;;;;;;3.38;2.08;;;;;;;15.08;76.19;100230.00;12208727;19;20078;-82
2022/05/27 01:15:37;;;;;;;5.05;2.05;;;;;;;15.02;76.27;100230.00;12208555;19;20468;-82
2022/05/27 01:24:40;;;;;;;6.35;2.38;;;;;;;15.02;76.18;100229.16;12210543;19;20011;-82
2022/05/27 01:39:23;;;;;;;5.22;2.45;;;;;;;14.77;78.15;100205.69;12221816;19;20688;-82
2022/05/27 02:03:18;;;;;;;5.97;2.17;;;;;;;14.45;80.99;100200.19;12228841;19;20023;-82
2022/05/27 02:07:36;;;;;;;4.35;2.20;;;;;;;14.40;81.44;100197.38;12181396;19;20504;-83
2022/05/27 02:11:42;;;;;;;5.90;2.45;;;;;;;14.39;80.92;100197.63;12199744;19;20011;-83
2022/05/27 02:15:47;;;;;;;4.35;2.50;;;;;;;14.33;81.62;100200.38;12173136;19;20110;-82
2022/05/27 02:20:12;;;;;;;3.75;2.42;;;;;;;14.30;82.04;100203.66;12203833;19;20010;-82
2022/05/27 02:24:24;;;;;;;9.27;2.58;;;;;;;14.26;82.70;100193.41;12208237;19;20018;-81
2022/05/27 02:52:13;;;;;;;6.18;2.60;;;;;;;14.07;85.72;100198.50;12176908;19;20011;-81
2022/05/27 02:56:21;;;;;;;4.78;2.58;;;;;;;14.10;85.05;100196.03;12212572;19;20449;-81
2022/05/27 03:00:29;;;;;;;6.10;2.60;;;;;;;14.19;84.92;100185.31;12221997;19;20019;-81
2022/05/27 03:04:31;;;;;;;5.53;3.15;;;;;;;14.27;85.69;100184.78;12193568;19;20014;-81
2022/05/27 03:09:04;;;;;;;7.63;3.20;;;;;;;14.32;86.02;100186.78;12206346;19;20031;-81
2022/05/27 03:13:21;;;;;;;8.85;2.65;;;;;;;14.42;84.66;100183.25;12187239;19;20010;-81
2022/05/27 03:17:35;;;;;;;6.07;4.00;;;;;;;14.50;85.31;100183.59;12218018;19;20073;-81
2022/05/27 03:22:03;;;;;;;5.90;2.70;;;;;;;14.60;84.81;100185.63;12188070;19;20010;-82
2022/05/27 03:26:19;;;;;;;5.13;3.15;;;;;;;14.72;84.22;100180.72;12205649;19;20011;-82
2022/05/27 03:30:30;;;;;;;6.88;3.25;;;;;;;14.80;83.84;100177.44;12227012;19;20078;-82
2022/05/27 03:39:48;;;;;;;6.38;2.90;;;;;;;14.97;83.04;100199.44;12192350;19;20014;-83
2022/05/27 03:43:50;;;;;;;7.10;3.15;;;;;;;15.00;82.77;100204.44;12205550;19;20010;-83
2022/05/27 03:47:52;;;;;;;7.13;3.20;;;;;;;15.01;83.20;100202.50;12216024;19;20376;-83
2022/05/27 03:52:09;;;;;;;7.97;3.13;;;;;;;15.01;83.85;100195.00;12196150;19;20014;-83
2022/05/27 03:56:11;;;;;;;6.93;3.25;;;;;;;15.00;83.74;100198.06;12208215;19;20070;-82
2022/05/27 04:00:14;;;;;;;7.70;3.00;;;;;;;15.02;83.88;100185.59;12208815;19;20555;-82
2022/05/27 04:04:22;;;;;;;6.35;3.28;;;;;;;14.99;84.61;100201.94;12189278;19;20015;-83
2022/05/27 04:08:24;;;;;;;8.60;2.92;;;;;;;14.97;85.17;100193.06;12206342;19;20011;-82
2022/05/27 04:12:26;;;;;;;8.07;3.42;;;;;;;15.00;84.78;100203.63;12209166;19;20431;-83
2022/05/27 04:16:27;;;;;;;7.35;3.45;;;;;;;15.02;85.04;100201.38;12181789;19;20010;-83
2022/05/27 04:20:29;;;;;;;8.70;3.25;;;;;;;15.06;84.87;100204.50;12205352;19;20018;-82
2022/05/27 04:24:31;;;;;;;7.25;3.53;;;;;;;15.07;84.88;100204.19;12204123;19;20082;-82
2022/05/27 04:28:33;;;;;;;7.57;3.65;;;;;;;15.03;85.04;100201.13;12210227;19;20037;-82
2022/05/27 04:32:35;;;;;;;;;;;;;;;14.92;85.70;100207.72;12211739;19;20496;-83
2022/05/27 04:36:37;;;;;;;9.80;3.47;;;;;;;14.88;85.21;100203.84;12181548;19;19978;-84
2022/05/27 04:40:39;;;;;;;10.50;3.67;;;;;;;14.81;86.08;100206.84;12209525;19;20010;-83
2022/05/27 04:44:40;;;;;;;5.03;2.87;;;;;;;14.83;86.82;100198.25;12196897;19;20013;-83
2022/05/27 04:48:42;;;;;;;20.92;5.20;;;;;;;14.95;86.12;100198.03;12177811;19;20025;-83
2022/05/27 04:52:44;;;;;;;7.60;3.47;;;;;;;15.05;86.37;100195.34;12208800;19;20023;-83
2022/05/27 04:56:46;;;;;;;6.15;3.20;;;;;;;15.21;85.48;100201.78;12197682;19;20086;-83
2022/05/27 05:00:48;;;;;;;6.30;3.35;;;;;;;15.30;84.97;100200.16;12178214;19;20027;-83
2022/05/27 05:04:51;;;;;;;8.80;3.55;;;;;;;15.39;84.31;100206.84;12196502;19;20093;-84
2022/05/27 05:08:53;;;;;;;10.05;3.97;;;;;;;15.46;83.85;100204.63;12203937;19;20007;-83
2022/05/27 05:12:56;;;;;;;8.45;3.53;;;;;;;15.59;83.20;100210.81;12173661;19;20126;-83
2022/05/27 05:16:58;;;;;;;6.63;2.97;;;;;;;15.62;82.70;100207.47;12207621;19;20121;-82
2022/05/27 05:21:00;;;;;;;5.40;3.28;;;;;;;15.78;82.15;100200.88;12203999;19;20021;-82
2022/05/27 05:25:02;;;;;;;5.70;2.97;;;;;;;15.99;80.87;100198.13;12161499;19;20014;-81
2022/05/27 05:29:06;;;;;;;6.75;3.03;;;;;;;16.18;79.69;100190.91;12214982;19;20030;-81
2022/05/27 05:33:07;;;;;;;8.95;3.17;;;;;;;16.31;78.91;100195.09;12210715;19;20309;-82
2022/05/27 05:37:09;;;;;;;6.88;3.05;;;;;;;16.53;78.11;100192.00;12194421;19;20425;-81
2022/05/27 05:41:10;;;;;;;7.78;3.05;;;;;;;16.70;76.75;100183.34;12206932;19;20464;-82
2022/05/27 05:45:15;;;;;;;3.78;2.60;;;;;;;16.77;75.74;100181.97;12210741;19;20024;-81
2022/05/27 05:49:17;;;;;;;6.10;2.80;;;;;;;16.69;75.87;100190.03;12183108;19;20477;-81
2022/05/27 05:53:21;;;;;;;6.25;2.90;;;;;;;17.05;75.79;100194.41;12215058;19;20017;-81
2022/05/27 05:57:22;;;;;;;8.07;3.28;;;;;;;17.46;74.54;100188.69;12214951;19;20017;-81
2022/05/27 06:01:24;;;;;;;4.47;3.17;;;;;;;17.62;72.48;100195.00;12192535;19;20014;-82
2022/05/27 06:05:26;;;;;;;4.82;3.30;;;;;;;17.84;71.79;100199.34;12211541;19;20009;-83
2022/05/27 06:09:36;;;;;;;5.37;3.20;;;;;;;17.92;71.29;100207.94;12199254;19;20015;-83
2022/05/27 06:52:18;;;;;;;6.57;3.65;;;;;;;17.45;71.96;100214.03;12206838;19;20015;-81
2022/05/27 06:56:29;;;;;;;7.45;3.88;;;;;;;17.27;72.50;100210.75;12214564;19;20018;-81
2022/05/27 07:00:51;;;;;;;7.75;3.55;;;;;;;17.17;73.06;100208.03;12192763;19;20357;-81
2022/05/27 07:05:09;;;;;;;6.60;3.87;;;;;;;17.04;73.42;100215.03;12220410;19;20010;-85
2022/05/27 07:09:13;;;;;;;5.93;3.67;;;;;;;16.96;73.60;100215.59;12203008;19;20018;-81
2022/05/27 07:13:14;;;;;;;8.23;3.90;;;;;;;16.96;73.44;100218.41;12195273;19;20063;-82
2022/05/27 07:17:16;;;;;;;6.50;3.63;;;;;;;16.98;73.72;100216.13;12216987;19;20014;-81
2022/05/27 07:21:18;;;;;;;9.43;3.58;;;;;;;16.99;73.63;100225.34;12215397;19;20010;-83
2022/05/27 07:25:20;;;;;;;5.22;3.50;;;;;;;16.90;74.28;100227.88;12200959;19;20010;-83
2022/05/27 07:29:23;;;;;;;10.85;3.88;;;;;;;16.80;74.52;100231.50;12218320;19;20014;-82
2022/05/27 07:33:25;;;;;;;7.28;3.17;;;;;;;16.76;74.61;100227.63;12213557;19;20015;-83
2022/05/27 07:37:27;;;;;;;5.50;2.60;;;;;;;16.75;74.96;100227.88;12188589;19;20085;-82
2022/05/27 07:41:29;;;;;;;4.15;2.30;;;;;;;16.74;74.16;100232.59;12213558;19;20006;-82
2022/05/27 07:45:32;;;;;;;4.25;1.92;;;;;;;16.78;73.26;100224.56;12219030;19;20032;-82
2022/05/27 07:49:33;;;;;;;5.05;1.70;;;;;;;16.77;73.16;100228.44;12216047;19;20019;-82
2022/05/27 07:53:38;;;;;;;5.32;2.10;;;;;;;16.81;73.04;100235.13;12212951;19;20010;-81
2022/05/27 07:57:44;;;;;;;4.22;1.55;;;;;;;16.89;72.57;100239.28;12189506;19;20377;-82
2022/05/27 08:01:46;;;;;;;4.55;1.50;;;;;;;16.90;72.59;100240.97;12220772;19;20015;-82
2022/05/27 08:05:48;;;;;;;2.97;1.70;;;;;;;16.92;72.29;100231.19;12210473;19;20018;-82
2022/05/27 08:09:50;;;;;;;2.20;1.63;;;;;;;16.94;72.46;100236.50;12182492;19;20014;-82
2022/05/27 08:13:52;;;;;;;6.70;2.30;;;;;;;16.93;72.22;100229.25;12208880;19;20019;-82
2022/05/27 08:17:55;;;;;;;3.85;1.65;;;;;;;16.97;71.66;100230.34;12206738;19;20011;-83
2022/05/27 08:21:56;;;;;;;4.55;1.70;;;;;;;17.05;71.73;100224.22;12191493;19;20010;-83
2022/05/27 08:25:58;;;;;;;4.07;1.98;;;;;;;17.10;71.68;100229.75;12215412;19;20082;-82
2022/05/27 08:30:01;;;;;;;2.83;1.50;;;;;;;17.22;71.55;100223.88;12209105;19;20468;-83
2022/05/27 08:38:28;;;;;;;;;;;;;;;17.41;71.08;100229.66;12200734;19;20022;-84
2022/05/27 08:42:57;;;;;;;4.35;1.40;;;;;;;17.71;70.11;100223.09;12211881;19;19966;-82
2022/05/27 08:47:24;;;;;;;2.97;1.55;;;;;;;18.16;69.01;100221.16;12180674;19;20019;-82
2022/05/27 08:51:34;;;;;;;3.80;1.58;;;;;;;18.23;68.08;100224.44;12215123;19;20002;-83
2022/05/27 09:00:14;;;;;;;3.03;1.58;;;;;;;18.32;68.08;100233.03;12207404;19;20014;-81
2022/05/27 09:04:18;;;;;;;2.95;1.77;;;;;;;18.70;67.21;100227.69;12188087;19;20034;-82
2022/05/27 09:08:24;;;;;;;3.10;1.40;;;;;;;19.04;65.63;100227.66;12204328;19;20010;-82
2022/05/27 09:12:37;;;;;;;2.65;1.30;;;;;;;19.39;64.66;100218.00;12215572;19;20077;-82
2022/05/27 09:16:55;;;;;;;2.65;1.67;;;;;;;19.71;63.77;100231.31;12188126;19;20090;-82
2022/05/27 09:21:40;;;;;;;4.20;1.30;;;;;;;19.76;62.27;100222.03;12210256;19;20015;-82
2022/05/27 09:25:42;;;;;;;2.92;1.40;;;;;;;19.53;63.17;100224.53;12194815;19;20354;-82
2022/05/27 09:30:02;;;;;;;4.32;1.25;;;;;;;19.93;62.78;100221.47;12208598;19;20361;-81
2022/05/27 09:34:09;;;;;;;3.97;1.45;;;;;;;19.75;62.10;100221.19;12191158;19;20009;-81
2022/05/27 09:38:23;;;;;;;10.85;2.72;;;;;;;19.93;62.79;100218.69;12209715;19;20010;-82
2022/05/27 09:42:24;;;;;;;13.68;2.83;;;;;;;20.27;61.13;100224.03;12206065;19;20495;-81
2022/05/27 09:46:31;;;;;;;3.67;1.60;;;;;;;20.08;61.13;100224.06;12184235;19;20017;-81
2022/05/27 09:50:43;;;;;;;4.68;1.30;;;;;;;19.73;62.98;100233.81;12209635;19;20063;-81
2022/05/27 09:54:52;;;;;;;2.92;1.30;;;;;;;19.58;62.92;100237.63;12188935;19;20499;-82
2022/05/27 09:58:54;;;;;;;2.60;1.27;;;;;;;19.48;63.16;100234.94;12218389;19;20010;-83
2022/05/27 10:02:56;;;;;;;1.33;1.00;;;;;;;19.54;63.33;100225.34;12209070;19;20011;-82
2022/05/27 10:07:04;;;;;;;2.03;1.30;;;;;;;19.74;62.49;100222.31;12189184;19;20010;-83
2022/05/27 10:11:10;;;;;;;3.25;1.17;;;;;;;19.63;63.13;100228.31;12208193;19;20010;-82
2022/05/27 10:20:36;;;;;;;1.73;1.00;;;;;;;19.84;62.32;100215.75;12105409;19;2004390;-83
2022/05/27 10:24:42;;;;;;;4.70;1.35;;;;;;;19.95;61.43;100213.63;12184047;19;20014;-82
2022/05/27 10:28:56;;;;;;;1.70;1.05;;;;;;;20.01;61.54;100212.41;12207352;19;20014;-83
2022/05/27 10:33:17;;;;;;;2.83;0.98;;;;;;;20.04;61.75;100229.41;12203589;19;20007;-84
2022/05/27 10:37:34;;;;;;;1.98;1.10;;;;;;;19.99;61.27;100226.72;12186057;19;20017;-83
2022/05/27 10:42:02;;;;;;;1.85;1.00;;;;;;;20.13;60.37;100225.94;12208965;19;20007;-82
2022/05/27 10:46:07;;;;;;;2.17;1.08;;;;;;;20.50;59.89;100222.28;12180133;19;20002;-83
2022/05/27 10:50:20;;;;;;;3.03;0.70;;;;;;;20.87;58.63;100218.53;12204832;19;20018;-82
2022/05/27 10:54:42;;;;;;;2.78;0.80;;;;;;;21.19;57.31;100210.38;12209572;19;20003;-82
2022/05/27 11:03:34;;;;;;;1.58;0.80;;;;;;;20.89;57.66;100207.03;12215615;19;20409;-81
2022/05/27 11:07:47;;;;;;;2.13;1.10;;;;;;;20.95;58.30;100203.00;12184771;19;20006;-81
2022/05/27 11:11:55;;;;;;;0.98;0.68;;;;;;;20.89;57.50;100205.06;12202206;19;20536;-81
2022/05/27 11:16:15;;;;;;;1.65;0.88;;;;;;;21.07;57.26;100200.50;12185237;19;20389;-80
2022/05/27 11:20:42;;;;;;;2.50;1.00;;;;;;;20.79;57.69;100204.41;12221838;19;20366;-81
2022/05/27 11:25:09;;;;;;;6.60;1.00;;;;;;;20.59;58.44;100206.47;12193658;19;20070;-82
2022/05/27 11:29:35;;;;;;;0.55;0.50;;;;;;;21.03;57.71;100210.69;12219160;19;20017;-83
2022/05/27 11:33:52;;;;;;;0.75;0.57;;;;;;;21.65;56.30;100192.59;12197952;19;20007;-83
2022/05/27 11:38:18;;;;;;;0.73;0.52;;;;;;;22.11;54.57;100195.19;12213576;19;20365;-84
2022/05/27 11:42:43;;;;;;;2.45;0.60;;;;;;;22.29;54.74;100199.81;12215309;19;20074;-82
2022/05/27 11:47:05;;;;;;;0.98;0.80;;;;;;;22.36;54.79;100213.41;12199882;19;20015;-81
2022/05/27 11:51:24;;;;;;;1.10;0.70;;;;;;;22.08;54.55;100199.44;12215757;19;20030;-83
2022/05/27 11:55:47;;;;;;;3.30;0.90;;;;;;;22.03;55.07;100204.34;12194822;19;20045;-84
2022/05/27 12:00:13;;;;;;;1.85;0.80;;;;;;;22.31;55.13;100210.75;12212122;19;20006;-83
2022/05/27 12:04:16;;;;;;;1.55;0.55;;;;;;;22.48;54.03;100196.78;12195199;19;20010;-82
2022/05/27 12:08:40;;;;;;;2.17;0.90;;;;;;;22.73;54.18;100195.31;12216616;19;20014;-83
2022/05/27 12:12:52;;;;;;;1.65;0.70;;;;;;;22.00;54.95;100179.72;12195532;19;20011;-80
2022/05/27 12:16:56;;;;;;;2.10;0.63;;;;;;;21.78;55.62;100180.53;12211610;19;20010;-82
2022/05/27 12:21:02;;;;;;;1.77;0.77;;;;;;;21.99;54.02;100170.50;12216965;19;20007;-81
2022/05/27 12:25:19;;;;;;;0.85;0.70;;;;;;;22.12;54.41;100168.78;12196818;19;20110;-81
2022/05/27 12:29:23;;;;;;;9.02;0.80;;;;;;;22.40;52.85;100169.50;12216207;19;20010;-81
2022/05/27 12:33:27;;;;;;;3.95;0.80;;;;;;;22.30;51.84;100164.97;12217435;19;20731;-82
2022/05/27 12:37:29;;;;;;;1.88;0.80;;;;;;;22.67;50.98;100162.06;12195655;19;20571;-82
2022/05/27 12:41:35;;;;;;;3.67;0.83;;;;;;;22.11;52.08;100174.72;12210734;19;20380;-81
2022/05/27 12:45:44;;;;;;;1.88;0.60;;;;;;;21.42;53.66;100191.69;12186312;19;20010;-82
2022/05/27 12:50:06;;;;;;;0.77;0.40;;;;;;;20.63;59.30;100207.50;12211542;19;20070;-82
2022/05/27 12:54:08;;;;;;;2.50;0.65;;;;;;;19.04;66.79;100199.72;12213544;19;20074;-83
2022/05/27 13:02:34;;;;;;;1.38;0.80;;;;;;;16.73;80.97;100200.31;12206114;19;20030;-79
2022/05/27 13:06:38;;;;;;;2.67;1.15;;;;;;;16.29;84.37;100206.47;12181695;19;20704;-78
2022/05/27 13:10:46;;;;;;;4.95;1.90;;;;;;;15.87;89.86;100195.59;12202336;19;20003;-79
2022/05/27 13:14:49;;;;;;;5.30;2.35;;;;;;;15.55;90.28;100199.38;12202450;19;20030;-80
2022/05/27 13:18:58;;;;;;;5.28;1.98;;;;;;;15.47;94.12;100197.16;12181025;19;20016;-79
2022/05/27 13:23:14;;;;;;;4.38;2.05;;;;;;;15.37;94.37;100192.38;12203339;19;20010;-79
2022/05/27 13:27:28;;;;;;;4.25;2.40;;;;;;;15.32;94.51;100206.28;12209335;19;20020;-78
2022/05/27 13:31:41;;;;;;;5.40;2.80;;;;;;;15.54;94.14;100196.91;12187379;19;20115;-79
2022/05/27 13:35:45;;;;;;;4.15;3.08;;;;;;;15.77;93.42;100185.31;12213512;19;20081;-79
2022/05/27 13:39:53;;;;;;;5.47;2.80;;;;;;;16.14;94.63;100187.00;12179951;19;20015;-80
2022/05/27 13:43:56;;;;;;;4.10;2.78;;;;;;;16.62;95.59;100180.00;12209320;19;20010;-80
2022/05/27 13:48:07;;;;;;;;;;;;;;;16.90;93.32;100182.50;12208040;19;20011;-82
2022/05/27 13:52:20;;;;;;;5.43;2.20;;;;;;;17.16;93.59;100178.50;12186112;19;19974;-81
2022/05/27 13:56:37;;;;;;;5.20;2.25;;;;;;;17.63;93.75;100182.72;12203469;19;20358;-82
2022/05/27 14:00:42;;;;;;;3.58;2.05;;;;;;;18.04;92.45;100182.47;12183047;19;20015;-82
2022/05/27 14:11:06;;;;;;;2.72;1.70;;;;;;;20.97;85.11;100172.72;12174926;19;20023;-85
2022/05/27 14:31:22;;;;;;;2.92;1.23;;;;;;;26.73;61.22;100148.34;12183166;19;20378;-86
2022/05/27 14:35:38;;;;;;;1.77;1.15;;;;;;;27.46;54.08;100134.28;12212057;19;20010;-86
2022/05/27 14:39:41;;;;;;;2.53;0.90;;;;;;;27.71;47.29;100145.53;12182514;19;20014;-85
2022/05/27 14:43:49;;;;;;;0.60;0.60;;;;;;;26.08;50.48;100134.69;12199183;19;20007;-85
2022/05/27 14:47:51;;;;;;;1.15;0.75;;;;;;;25.19;51.02;100131.19;12199142;19;20018;-83
2022/05/27 14:51:54;;;;;;;0.98;0.88;;;;;;;24.82;51.70;100113.94;12200542;19;19999;-85
2022/05/27 14:55:59;;;;;;;1.77;0.70;;;;;;;24.12;52.73;100104.81;12210649;19;20081;-83
2022/05/27 15:00:13;;;;;;;1.42;0.85;;;;;;;23.60;53.85;100108.47;12222738;19;20078;-84
2022/05/27 15:04:19;;;;;;;1.42;0.80;;;;;;;24.48;53.74;100104.47;12205353;19;20011;-84
2022/05/27 15:08:22;;;;;;;1.67;0.70;;;;;;;26.32;48.25;100096.41;12222556;19;20015;-84
2022/05/27 15:12:34;;;;;;;3.13;1.00;;;;;;;27.29;44.75;100094.91;12220560;19;20047;-82
2022/05/27 15:16:40;;;;;;;1.25;0.65;;;;;;;28.74;42.94;100085.38;12180316;19;20070;-84
2022/05/27 15:21:37;;;;;;;0.98;0.73;;;;;;;29.21;39.99;100078.84;12214574;19;20479;-84
2022/05/27 15:33:05;;;;;;;1.35;0.70;;;;;;;27.63;41.38;100068.03;12197016;19;20007;-86
2022/05/27 15:34:55;;;;;;;2.22;1.13;;;;;;;24.76;44.63;100050.47;12191358;19;20011;-84
2022/05/27 15:39:01;;;;;;;1.50;1.00;;;;;;;23.78;46.79;100052.22;12209257;19;20501;-83
2022/05/27 15:43:20;;;;;;;3.70;1.10;;;;;;;22.69;47.33;100047.38;12187586;19;20247;-84
2022/05/27 15:47:24;;;;;;;1.85;1.08;;;;;;;22.00;47.93;100047.84;12199510;19;20018;-84
2022/05/27 15:51:26;;;;;;;5.35;1.35;;;;;;;21.50;48.36;100033.97;12214321;19;20002;-84
2022/05/27 15:55:28;;;;;;;4.23;1.17;;;;;;;20.95;49.84;100040.53;12189112;19;20553;-84
2022/05/27 15:59:29;;;;;;;3.60;1.52;;;;;;;20.54;50.21;100046.16;12215008;19;20014;-84
2022/05/27 16:03:33;;;;;;;3.50;1.42;;;;;;;20.16;50.48;100047.09;12189368;19;20034;-83
2022/05/27 16:07:34;;;;;;;2.28;1.50;;;;;;;19.90;50.26;100043.09;12210732;19;20031;-84
2022/05/27 16:11:36;;;;;;;2.85;1.27;;;;;;;19.69;50.11;100054.66;12203258;19;20526;-84
2022/05/27 16:15:39;;;;;;;2.60;1.40;;;;;;;19.90;49.79;100045.91;12190319;19;20010;-84
2022/05/27 16:19:41;;;;;;;1.92;1.35;;;;;;;20.11;49.12;100049.16;12211878;19;20078;-83
2022/05/27 16:23:45;;;;;;;2.97;1.63;;;;;;;20.17;49.01;100048.78;12211084;19;20014;-83
2022/05/27 16:28:03;;;;;;;3.33;1.85;;;;;;;20.27;48.34;100053.34;12186951;19;20010;-84
2022/05/27 16:32:05;;;;;;;4.15;1.90;;;;;;;20.41;48.46;100048.59;12209062;19;20006;-83
2022/05/27 16:36:06;;;;;;;6.27;2.57;;;;;;;20.55;48.19;100054.22;12209216;19;19998;-83
2022/05/27 16:40:10;;;;;;;4.30;2.00;;;;;;;20.65;48.40;100053.22;12181221;19;20448;-83
2022/05/27 16:44:12;;;;;;;7.15;1.85;;;;;;;20.65;47.89;100042.84;12204682;19;20047;-84
2022/05/27 16:48:13;;;;;;;2.28;1.70;;;;;;;20.56;47.58;100041.09;12210229;19;20010;-83
2022/05/27 16:52:16;;;;;;;5.87;2.47;;;;;;;20.60;48.16;100050.50;12195655;19;20003;-83
2022/05/27 16:56:19;;;;;;;6.20;1.70;;;;;;;20.62;47.88;100054.66;12204211;19;20011;-83
2022/05/27 17:00:27;;;;;;;4.88;1.77;;;;;;;20.56;47.90;100049.47;12204541;19;20018;-83
2022/05/27 17:04:29;;;;;;;5.25;2.00;;;;;;;20.55;47.77;100047.81;12191698;19;20007;-83
2022/05/27 17:08:31;;;;;;;2.95;1.88;;;;;;;20.39;47.44;100047.25;12205766;19;20022;-81
2022/05/27 17:12:33;;;;;;;4.13;1.80;;;;;;;20.31;47.39;100051.59;12184277;19;20015;-80
2022/05/27 17:16:35;;;;;;;3.78;1.60;;;;;;;20.29;47.49;100042.69;12208847;19;20007;-82
2022/05/27 17:20:37;;;;;;;4.65;1.77;;;;;;;20.11;47.01;100037.97;12207431;19;20019;-82
2022/05/27 17:24:40;;;;;;;4.65;2.00;;;;;;;19.91;47.49;100042.81;12196811;19;20029;-81
2022/05/27 17:28:41;;;;;;;4.03;1.67;;;;;;;19.70;47.11;100038.72;12215557;19;20015;-80
2022/05/27 17:32:43;;;;;;;3.55;1.55;;;;;;;19.61;46.93;100032.13;12211626;19;20018;-81
2022/05/27 17:36:45;;;;;;;5.00;1.60;;;;;;;19.55;46.08;100036.97;12196881;19;20461;-81
2022/05/27 17:40:47;;;;;;;4.37;1.67;;;;;;;19.56;45.82;100047.81;12217539;19;20024;-81
2022/05/27 17:44:49;;;;;;;6.10;1.67;;;;;;;19.68;45.47;100038.19;12203944;19;20018;-81
2022/05/27 17:53:11;;;;;;;3.63;1.50;;;;;;;20.18;45.06;100042.03;12213514;19;20066;-82
2022/05/27 17:57:15;;;;;;;2.97;1.40;;;;;;;20.24;43.44;100043.59;12227122;19;20011;-78
2022/05/27 18:01:18;;;;;;;4.07;1.50;;;;;;;20.07;43.88;100048.94;12216793;19;20259;-80
2022/05/27 18:05:21;;;;;;;3.17;1.40;;;;;;;20.05;44.08;100045.66;12249421;19;20007;-79
2022/05/27 18:09:23;;;;;;;3.30;1.70;;;;;;;19.88;44.58;100057.41;12213290;19;20007;-79
2022/05/27 18:13:26;;;;;;;2.88;1.60;;;;;;;19.71;44.67;100057.13;12179657;19;20324;-81
2022/05/27 18:17:27;;;;;;;5.63;1.58;;;;;;;19.55;44.82;100062.94;12206616;19;20011;-80
2022/05/27 18:21:29;;;;;;;7.47;1.83;;;;;;;19.43;44.16;100070.97;12206971;19;20070;-80
2022/05/27 18:25:31;;;;;;;4.68;1.45;;;;;;;19.17;44.85;100081.66;12195916;19;20076;-79
2022/05/27 18:29:33;;;;;;;4.60;1.65;;;;;;;19.03;45.30;100075.97;12207717;19;20038;-79
2022/05/27 18:33:35;;;;;;;5.20;1.90;;;;;;;18.96;46.02;100086.69;12187488;19;20011;-80
2022/05/27 18:37:36;;;;;;;6.50;2.10;;;;;;;18.89;45.68;100083.44;12211738;19;20034;-80
2022/05/27 18:41:38;;;;;;;5.88;1.60;;;;;;;18.81;45.68;100089.69;12203502;19;20011;-79
2022/05/27 18:45:40;;;;;;;6.22;1.40;;;;;;;18.73;45.41;100093.09;12182078;19;20006;-80
2022/05/27 18:49:42;;;;;;;6.53;2.63;;;;;;;18.59;45.58;100098.53;12205540;19;20093;-79
2022/05/27 18:53:44;;;;;;;7.47;1.77;;;;;;;18.29;45.63;100099.72;12215055;19;20006;-80
2022/05/27 18:57:46;;;;;;;;;;;;;;;18.12;45.56;100100.16;12187732;19;20022;-80
2022/05/27 19:01:48;;;;;;;5.63;2.03;;;;;;;17.84;46.64;100107.38;12206908;19;19938;-80
2022/05/27 19:05:50;;;;;;;5.55;1.80;;;;;;;17.67;46.38;100119.72;12206519;19;20565;-80
2022/05/27 19:09:53;;;;;;;9.75;2.00;;;;;;;17.43;46.87;100115.97;12186782;19;20028;-80
2022/05/27 19:13:54;;;;;;;4.07;1.80;;;;;;;17.27;46.97;100135.56;12207279;19;20013;-80
2022/05/27 19:17:56;;;;;;;7.90;2.33;;;;;;;17.16;47.09;100133.94;12200240;19;20030;-80
2022/05/27 19:21:58;;;;;;;9.30;2.58;;;;;;;16.97;47.66;100144.06;12186791;19;20030;-80
2022/05/27 19:26:00;;;;;;;10.27;2.08;;;;;;;16.84;47.64;100151.06;12208815;19;20006;-80
2022/05/27 19:30:01;;;;;;;11.23;2.27;;;;;;;16.64;48.16;100158.31;12209728;19;20006;-81
2022/05/27 19:34:04;;;;;;;6.03;2.25;;;;;;;16.48;48.16;100166.97;12182161;19;20086;-80
2022/05/27 19:38:07;;;;;;;8.70;1.90;;;;;;;16.34;47.82;100175.06;12204678;19;20412;-80
2022/05/27 19:42:09;;;;;;;6.95;2.42;;;;;;;16.24;48.05;100180.59;12204118;19;20614;-80
2022/05/27 19:46:17;;;;;;;7.85;2.67;;;;;;;16.11;48.36;100182.00;12179990;19;20038;-80
2022/05/27 19:50:21;;;;;;;5.10;1.60;;;;;;;16.00;48.71;100188.66;12205168;19;20021;-80
2022/05/27 19:54:24;;;;;;;11.90;2.35;;;;;;;15.85;49.05;100186.69;12195851;19;20492;-82
2022/05/27 20:07:07;;;;;;;11.15;2.30;;;;;;;15.44;49.64;100203.25;12178008;19;20030;-81
2022/05/27 20:11:08;;;;;;;8.57;2.47;;;;;;;15.37;49.37;100206.28;12198396;19;20328;-80
2022/05/27 20:15:27;;;;;;;8.30;2.33;;;;;;;15.25;49.83;100205.66;12199416;19;20015;-80
2022/05/27 20:19:30;;;;;;;6.30;1.85;;;;;;;15.17;49.71;100212.59;12182631;19;20036;-80
2022/05/27 20:23:33;;;;;;;6.43;1.67;;;;;;;15.11;49.42;100226.69;12205727;19;20076;-80
2022/05/27 20:27:34;;;;;;;8.77;2.07;;;;;;;15.01;49.35;100228.31;12175651;19;20034;-80
2022/05/27 20:31:36;;;;;;;9.13;2.40;;;;;;;15.00;49.11;100225.81;12199389;19;20385;-81
2022/05/27 20:39:58;;;;;;;3.78;1.55;;;;;;;14.79;49.77;100225.69;12179447;19;20034;-81
2022/05/27 20:44:00;;;;;;;6.97;1.60;;;;;;;14.69;50.06;100227.56;12204144;19;20014;-81
2022/05/27 20:48:02;;;;;;;8.43;1.93;;;;;;;14.58;50.20;100235.81;12196589;19;20067;-82
2022/05/27 20:52:06;;;;;;;5.23;1.87;;;;;;;14.47;50.19;100228.50;12183876;19;20010;-81
2022/05/27 20:56:07;;;;;;;10.15;3.10;;;;;;;14.32;50.80;100237.50;12195940;19;20476;-80
2022/05/27 21:00:09;;;;;;;10.23;2.80;;;;;;;14.14;51.36;100243.47;12206168;19;20033;-81
2022/05/27 21:04:17;;;;;;;6.50;1.90;;;;;;;14.01;51.63;100246.63;12184774;19;20006;-80
2022/05/27 21:12:39;;;;;;;5.82;1.70;;;;;;;13.67;52.99;100236.59;12181248;19;20468;-81
2022/05/27 21:16:43;;;;;;;10.32;2.50;;;;;;;13.55;53.02;100244.22;12202872;19;20014;-79
2022/05/27 21:20:45;;;;;;;8.30;1.92;;;;;;;13.41;53.71;100242.94;12202329;19;20538;-79
2022/05/27 21:24:47;;;;;;;9.38;1.92;;;;;;;13.28;54.06;100243.34;12182530;19;20010;-79
2022/05/27 21:28:48;;;;;;;8.43;2.20;;;;;;;13.15;54.41;100250.91;12197443;19;20006;-78
2022/05/27 21:32:50;;;;;;;12.40;3.00;;;;;;;13.05;54.76;100256.28;12203145;19;20039;-79
2022/05/27 21:36:54;;;;;;;8.80;2.08;;;;;;;12.93;55.54;100252.78;12171530;19;20004;-80
2022/05/27 21:40:56;;;;;;;5.57;1.90;;;;;;;12.87;55.44;100253.81;12196071;19;20479;-80
2022/05/27 21:44:57;;;;;;;6.63;2.80;;;;;;;12.80;55.82;100253.16;12208531;19;20007;-80
2022/05/27 21:48:59;;;;;;;12.00;2.53;;;;;;;12.72;56.23;100251.66;12188113;19;20010;-79